W2GUX Weather Reports


Display with metric or nautical units.
time (UTC)temp
F
wind
direction
speed
MPH
gust
MPH
rain 1hr
in
rain 24hr
in
rain mn
in
humidity
%
barometer
mb
20190627063004 71 25 0.0 2.0 0.00 0.00 0.00 80 1015.0
20190627062004 71 0 0.0 0.0 0.00 0.00 0.00 80 1014.9
20190627061503 71 0 0.0 0.0 0.00 0.00 0.00 80 1014.9
20190627061003 71 0 0.0 0.0 0.00 0.00 0.00 80 1014.8
20190627060503 71 25 0.0 1.0 0.00 0.00 0.00 80 1014.7
20190627060004 71 25 0.0 1.0 0.00 0.00 0.00 80 1014.7
20190627055503 71 0 0.0 0.0 0.00 0.00 0.00 80 1014.7
20190627055003 71 0 0.0 0.0 0.00 0.00 0.00 80 1014.6
20190627054504 72 0 0.0 0.0 0.00 0.00 0.00 80 1014.5
20190627054004 72 0 0.0 0.0 0.00 0.00 0.00 79 1014.5
20190627053504 72 0 0.0 0.0 0.00 0.00 0.00 80 1014.5
20190627053003 72 25 0.0 1.0 0.00 0.00 0.00 80 1014.5
20190627052503 72 25 0.0 1.0 0.00 0.00 0.00 80 1014.6
20190627052004 72 0 0.0 0.0 0.00 0.00 0.00 80 1014.7
20190627051503 72 0 0.0 0.0 0.00 0.00 0.00 80 1014.6
20190627051003 72 0 0.0 0.0 0.00 0.00 0.00 80 1014.5
20190627050503 72 0 0.0 0.0 0.00 0.00 0.00 80 1014.5
20190627050005 72 0 0.0 0.0 0.00 0.00 0.00 79 1014.5
20190627045503 72 0 0.0 0.0 0.00 0.00 0.00 79 1014.5
20190627045003 73 0 0.0 0.0 0.00 0.00 0.00 78 1014.4
20190627044503 73 0 0.0 0.0 0.00 0.00 0.00 78 1014.4
20190627044004 73 0 0.0 0.0 0.00 0.00 0.00 78 1014.3
20190627043504 73 0 0.0 0.0 0.00 0.00 0.00 78 1014.3
20190627043003 73 0 0.0 0.0 0.00 0.00 0.00 77 1014.4
20190627042503 73 0 0.0 0.0 0.00 0.00 0.00 77 1014.4
20190627042004 73 24 0.0 1.0 0.00 0.00 0.00 77 1014.4
20190627041504 73 24 0.0 1.0 0.00 0.00 0.00 77 1014.4
20190627041003 74 25 0.0 1.0 0.00 0.00 0.00 77 1014.4
20190627040503 74 25 0.0 1.0 0.00 0.00 0.00 76 1014.3
20190627040005 74 0 0.0 0.0 0.00 0.00 0.00 76 1014.3
20190627035003 74 0 0.0 0.0 0.00 0.00 0.00 74 1014.2
20190627034503 75 0 0.0 0.0 0.00 0.00 0.00 74 1014.2
20190627034004 75 25 0.0 1.0 0.00 0.00 0.00 73 1014.1
20190627033503 75 25 0.0 1.0 0.00 0.00 0.00 73 1014.2
20190627033003 75 0 0.0 0.0 0.00 0.00 0.00 72 1014.1
20190627032503 75 0 0.0 0.0 0.00 0.00 0.00 72 1014.1
20190627032003 76 0 0.0 0.0 0.00 0.00 0.00 71 1014.1
20190627031503 76 0 0.0 0.0 0.00 0.00 0.00 71 1014.0
20190627031004 76 0 0.0 0.0 0.00 0.00 0.00 70 1014.0
20190627030503 76 0 0.0 0.0 0.00 0.00 0.00 69 1014.1
20190627030003 77 0 0.0 0.0 0.00 0.00 0.00 69 1014.0
20190627025504 77 0 0.0 0.0 0.00 0.00 0.00 68 1014.0
20190627025004 77 0 0.0 0.0 0.00 0.00 0.00 67 1014.1
20190627024504 77 0 0.0 0.0 0.00 0.00 0.00 67 1014.1
20190627024003 77 25 0.0 1.0 0.00 0.00 0.00 67 1014.0
20190627023503 77 25 0.0 1.0 0.00 0.00 0.00 66 1014.0
20190627023004 78 25 0.0 2.0 0.00 0.00 0.00 66 1013.9
20190627022503 78 21 1.0 3.0 0.00 0.00 0.00 65 1014.1
20190627021503 78 351 1.0 5.0 0.00 0.00 0.00 64 1014.1
20190627021004 78 230 0.0 2.0 0.00 0.00 0.00 65 1014.0
20190627020504 78 230 0.0 1.0 0.00 0.00 0.00 64 1013.8
20190627020003 78 229 0.0 1.0 0.00 0.00 0.00 64 1013.8
20190627015504 78 0 0.0 0.0 0.00 0.00 0.00 64 1013.8
20190627015004 78 230 0.0 1.0 0.00 0.00 0.00 63 1013.6
20190627014503 79 230 0.0 1.0 0.00 0.00 0.00 62 1013.5
20190627014003 79 0 0.0 0.0 0.00 0.00 0.00 62 1013.4
20190627013504 79 0 0.0 0.0 0.00 0.00 0.00 62 1013.4
20190627013004 79 0 0.0 0.0 0.00 0.00 0.00 61 1013.3
20190627012503 80 0 0.0 0.0 0.00 0.00 0.00 60 1013.3
20190627012003 80 0 0.0 0.0 0.00 0.00 0.00 59 1013.2
20190627011503 80 0 0.0 0.0 0.00 0.00 0.00 59 1013.1
20190627011004 80 0 0.0 0.0 0.00 0.00 0.00 58 1013.1
20190627010004 81 0 0.0 0.0 0.00 0.00 0.00 58 1013.1
20190627005504 81 0 0.0 0.0 0.00 0.00 0.00 56 1013.1
20190627005004 82 0 0.0 0.0 0.00 0.00 0.00 56 1013.3
20190627004503 82 0 0.0 0.0 0.00 0.00 0.00 55 1013.3
20190627004003 82 0 0.0 0.0 0.00 0.00 0.00 55 1013.3
20190627003504 82 0 0.0 0.0 0.00 0.00 0.00 54 1013.2
20190627003004 83 229 0.0 1.0 0.00 0.00 0.00 54 1013.1
20190627002503 83 229 0.0 1.0 0.00 0.00 0.00 53 1013.1
20190627002003 83 0 0.0 0.0 0.00 0.00 0.00 53 1012.9
20190627001504 83 0 0.0 0.0 0.00 0.00 0.00 52 1012.9
20190627001004 84 0 0.0 0.0 0.00 0.00 0.00 52 1012.8
20190627000503 84 230 0.0 1.0 0.00 0.00 0.00 52 1012.5
20190627000004 84 229 0.0 2.0 0.00 0.00 0.00 50 1012.5
20190626235504 84 229 0.0 2.0 0.00 0.00 0.00 49 1012.3
20190626235003 85 230 0.0 1.0 0.00 0.00 0.00 49 1012.3
20190626234503 85 230 0.0 1.0 0.00 0.00 0.00 49 1012.3
20190626234003 85 230 0.0 1.0 0.00 0.00 0.00 48 1012.3
20190626233004 86 229 0.0 2.0 0.00 0.00 0.00 49 1012.4
20190626232003 86 229 0.0 1.0 0.00 0.00 0.00 45 1012.2
20190626231503 86 229 0.0 1.0 0.00 0.00 0.00 46 1012.3
20190626231004 87 230 0.0 2.0 0.00 0.00 0.00 45 1012.4
20190626230004 87 258 1.0 3.0 0.00 0.00 0.00 42 1012.5
20190626225503 88 275 0.0 3.0 0.00 0.00 0.00 42 1012.7
20190626225004 88 302 0.0 2.0 0.00 0.00 0.00 41 1012.7
20190626224003 88 313 1.0 5.0 0.00 0.00 0.00 40 1012.5
20190626223503 88 309 1.0 5.0 0.00 0.00 0.00 40 1012.4
20190626223003 88 312 1.0 5.0 0.00 0.00 0.00 39 1012.4
20190626222504 89 314 2.0 6.0 0.00 0.00 0.00 38 1012.3
20190626222004 89 318 2.0 6.0 0.00 0.00 0.00 37 1012.3
20190626221503 89 325 1.0 6.0 0.00 0.00 0.00 38 1012.3
20190626220504 89 285 1.0 5.0 0.00 0.00 0.00 37 1012.1
20190626220005 89 316 2.0 5.0 0.00 0.00 0.00 38 1012.1
20190626215504 89 322 2.0 7.0 0.00 0.00 0.00 36 1012.0
20190626215003 89 316 2.0 7.0 0.00 0.00 0.00 36 1011.9
20190626214504 90 300 1.0 5.0 0.00 0.00 0.00 36 1012.0
20190626213503 90 322 2.0 7.0 0.00 0.00 0.00 35 1012.1
20190626213003 90 305 2.0 9.0 0.00 0.00 0.00 36 1012.2
20190626212503 90 231 2.0 9.0 0.00 0.00 0.00 37 1012.0
20190626212004 90 283 3.0 10.0 0.00 0.00 0.00 36 1012.1
20190626211503 90 317 2.0 10.0 0.00 0.00 0.00 36 1012.2
20190626211003 90 305 2.0 6.0 0.00 0.00 0.00 35 1012.1
20190626210503 90 311 2.0 6.0 0.00 0.00 0.00 36 1012.1
20190626210004 91 288 1.0 6.0 0.00 0.00 0.00 34 1012.0
20190626205503 91 244 1.0 6.0 0.00 0.00 0.00 32 1011.9
20190626205003 91 283 2.0 7.0 0.00 0.00 0.00 34 1011.9
20190626204503 91 310 1.0 7.0 0.00 0.00 0.00 34 1012.0
20190626203003 92 300 1.0 6.0 0.00 0.00 0.00 33 1012.1
20190626202503 92 251 2.0 6.0 0.00 0.00 0.00 32 1012.0
20190626202004 91 270 2.0 6.0 0.00 0.00 0.00 32 1012.0
20190626201503 91 308 2.0 6.0 0.00 0.00 0.00 36 1012.0
20190626201003 91 274 2.0 6.0 0.00 0.00 0.00 33 1012.0
20190626200503 90 272 3.0 11.0 0.00 0.00 0.00 33 1012.0
20190626200004 90 229 3.0 11.0 0.00 0.00 0.00 34 1011.9
20190626195504 91 256 2.0 6.0 0.00 0.00 0.00 32 1011.9
20190626195003 91 330 3.0 7.0 0.00 0.00 0.00 34 1011.9
20190626194503 91 335 3.0 7.0 0.00 0.00 0.00 31 1012.0
20190626194004 91 291 2.0 7.0 0.00 0.00 0.00 31 1012.1
20190626193503 91 262 2.0 7.0 0.00 0.00 0.00 31 1012.1
20190626193003 91 280 2.0 6.0 0.00 0.00 0.00 31 1012.1
20190626192503 91 324 2.0 8.0 0.00 0.00 0.00 34 1012.2
20190626192004 91 288 3.0 8.0 0.00 0.00 0.00 32 1012.3
20190626191503 90 290 2.0 6.0 0.00 0.00 0.00 32 1012.3
20190626191003 91 332 2.0 6.0 0.00 0.00 0.00 31 1012.3
20190626190503 91 288 2.0 7.0 0.00 0.00 0.00 31 1012.2
20190626190003 91 268 2.0 7.0 0.00 0.00 0.00 32 1012.3
20190626185503 91 273 1.0 5.0 0.00 0.00 0.00 31 1012.3
20190626185003 91 301 2.0 6.0 0.00 0.00 0.00 32 1012.3
20190626184503 91 301 2.0 6.0 0.00 0.00 0.00 32 1012.3
20190626184004 91 295 2.0 7.0 0.00 0.00 0.00 31 1012.3
20190626183503 90 269 2.0 7.0 0.00 0.00 0.00 32 1012.2
20190626183003 90 241 2.0 6.0 0.00 0.00 0.00 32 1012.3
20190626182503 90 272 2.0 6.0 0.00 0.00 0.00 34 1012.3
20190626182004 90 283 2.0 7.0 0.00 0.00 0.00 33 1012.4
20190626181503 89 304 2.0 7.0 0.00 0.00 0.00 35 1012.4
20190626180504 88 354 3.0 8.0 0.00 0.00 0.00 35 1012.4
20190626175503 89 354 2.0 6.0 0.00 0.00 0.00 32 1012.5
20190626175003 89 347 3.0 8.0 0.00 0.00 0.00 33 1012.5
20190626174503 89 333 3.0 8.0 0.00 0.00 0.00 35 1012.7
20190626173503 89 336 2.0 8.0 0.00 0.00 0.00 39 1012.6
20190626173003 89 355 2.0 5.0 0.00 0.00 0.00 36 1012.7
20190626172504 88 356 2.0 7.0 0.00 0.00 0.00 35 1012.7
20190626172004 88 336 2.0 9.0 0.00 0.00 0.00 33 1012.7
20190626171503 88 332 3.0 9.0 0.00 0.00 0.00 34 1012.8
20190626170503 89 330 3.0 11.0 0.00 0.00 0.00 33 1013.0
20190626170004 89 319 2.0 10.0 0.00 0.00 0.00 34 1012.9
20190626165503 89 278 2.0 7.0 0.00 0.00 0.00 34 1012.9
20190626165003 88 270 3.0 10.0 0.00 0.00 0.00 33 1012.9
20190626164504 88 271 3.0 10.0 0.00 0.00 0.00 35 1012.9
20190626164004 88 308 3.0 11.0 0.00 0.00 0.00 33 1012.9
20190626163503 88 318 2.0 11.0 0.00 0.00 0.00 32 1013.0
20190626163003 88 305 3.0 7.0 0.00 0.00 0.00 35 1013.1
20190626162503 88 329 2.0 7.0 0.00 0.00 0.00 36 1013.3
20190626162004 88 335 1.0 7.0 0.00 0.00 0.00 35 1013.3
20190626161504 87 307 1.0 6.0 0.00 0.00 0.00 36 1013.3
20190626161003 87 340 2.0 5.0 0.00 0.00 0.00 35 1013.4
20190626160503 86 338 2.0 8.0 0.00 0.00 0.00 39 1013.4
20190626160004 87 314 1.0 8.0 0.00 0.00 0.00 38 1013.4
20190626155504 87 259 1.0 10.0 0.00 0.00 0.00 40 1013.4
20190626155003 87 262 2.0 10.0 0.00 0.00 0.00 39 1013.6
20190626154503 87 263 1.0 6.0 0.00 0.00 0.00 38 1013.6
20190626154004 86 271 2.0 6.0 0.00 0.00 0.00 41 1013.5
20190626153503 87 288 2.0 6.0 0.00 0.00 0.00 40 1013.5
20190626153003 86 305 2.0 7.0 0.00 0.00 0.00 41 1013.5
20190626152504 86 294 3.0 7.0 0.00 0.00 0.00 42 1013.5
20190626152004 86 304 2.0 8.0 0.00 0.00 0.00 41 1013.6
20190626151503 85 324 2.0 8.0 0.00 0.00 0.00 41 1013.5
20190626151003 85 299 1.0 8.0 0.00 0.00 0.00 43 1013.5
20190626150504 84 297 2.0 6.0 0.00 0.00 0.00 43 1013.5
20190626150004 84 345 2.0 6.0 0.00 0.00 0.00 42 1013.5
20190626145503 84 349 2.0 6.0 0.00 0.00 0.00 43 1013.5
20190626145003 84 313 2.0 6.0 0.00 0.00 0.00 41 1013.5
20190626144504 85 295 2.0 6.0 0.00 0.00 0.00 43 1013.5
20190626144003 84 304 2.0 7.0 0.00 0.00 0.00 42 1013.5
20190626143003 84 318 1.0 6.0 0.00 0.00 0.00 46 1013.4
20190626142504 83 338 1.0 3.0 0.00 0.00 0.00 47 1013.4
20190626142003 83 349 1.0 6.0 0.00 0.00 0.00 49 1013.5
20190626141503 83 270 2.0 6.0 0.00 0.00 0.00 46 1013.6
20190626141004 83 247 2.0 6.0 0.00 0.00 0.00 47 1013.5
20190626140504 83 280 2.0 7.0 0.00 0.00 0.00 48 1013.7
20190626140003 83 290 1.0 7.0 0.00 0.01 0.00 47 1013.7
20190626135503 82 294 2.0 7.0 0.00 0.01 0.00 49 1013.8
20190626135004 82 291 2.0 7.0 0.00 0.01 0.00 50 1013.8
20190626134504 82 320 2.0 7.0 0.00 0.01 0.00 51 1013.8
20190626134004 81 345 1.0 7.0 0.00 0.01 0.00 52 1013.8
20190626133503 80 16 1.0 3.0 0.00 0.01 0.00 52 1013.9
20190626133004 80 9 2.0 5.0 0.00 0.01 0.00 52 1013.9
20190626132003 79 357 1.0 5.0 0.00 0.01 0.00 53 1013.9
20190626131503 79 11 1.0 6.0 0.00 0.01 0.00 54 1013.9
20190626131004 78 11 2.0 7.0 0.00 0.01 0.00 55 1014.0
20190626130503 78 7 1.0 7.0 0.00 0.01 0.00 55 1013.9
20190626130004 77 186 1.0 5.0 0.00 0.01 0.00 61 1013.9
20190626125504 77 187 1.0 5.0 0.00 0.01 0.00 61 1014.0
20190626125004 76 357 0.0 1.0 0.00 0.01 0.00 64 1014.0
20190626124004 76 343 1.0 3.0 0.00 0.01 0.00 64 1014.0
20190626123503 76 327 1.0 4.0 0.00 0.01 0.00 65 1014.0
20190626123003 75 290 1.0 4.0 0.00 0.01 0.00 65 1014.0
20190626122503 75 314 1.0 3.0 0.00 0.01 0.00 66 1014.0
20190626122004 75 346 1.0 3.0 0.00 0.01 0.00 64 1014.0
20190626121503 75 336 1.0 5.0 0.00 0.01 0.00 65 1014.0
20190626121003 75 341 1.0 5.0 0.00 0.02 0.00 66 1013.9
20190626120503 74 344 1.0 5.0 0.00 0.02 0.00 66 1013.9
20190626115503 74 7 1.0 3.0 0.00 0.03 0.00 70 1013.9
20190626115003 73 12 1.0 3.0 0.00 0.03 0.00 71 1013.8
20190626114003 73 11 1.0 5.0 0.00 0.04 0.00 74 1013.5
20190626113503 73 354 1.0 5.0 0.00 0.06 0.00 75 1013.5
20190626113003 72 345 1.0 4.0 0.00 0.07 0.00 75 1013.5
20190626112004 72 4 1.0 5.0 0.00 0.11 0.00 79 1013.4
20190626111503 71 9 0.0 5.0 0.00 0.16 0.00 81 1013.4
20190626111003 71 12 0.0 2.0 0.00 0.19 0.00 81 1013.4
20190626110503 70 11 0.0 2.0 0.00 0.21 0.00 82 1013.3
20190626110004 70 11 0.0 2.0 0.00 0.26 0.00 83 1013.2
20190626105503 70 12 0.0 1.0 0.00 0.39 0.00 84 1013.2
20190626105003 69 12 0.0 1.0 0.00 0.42 0.00 86 1013.2
20190626104503 69 12 0.0 1.0 0.00 0.42 0.00 85 1013.2
20190626104004 69 12 0.0 1.0 0.00 0.42 0.00 85 1013.0
20190626103503 69 0 0.0 0.0 0.00 0.43 0.00 85 1013.0
20190626103003 69 0 0.0 0.0 0.00 0.44 0.00 84 1013.0
20190626102004 69 12 0.0 1.0 0.00 0.46 0.00 84 1012.9
20190626101504 69 11 0.0 1.0 0.00 0.46 0.00 83 1012.9
20190626101004 69 12 0.0 1.0 0.00 0.47 0.00 83 1012.9
20190626100503 69 0 0.0 0.0 0.00 0.48 0.00 82 1012.8
20190626100004 69 0 0.0 0.0 0.00 0.49 0.00 81 1012.8
20190626095503 69 0 0.0 0.0 0.00 0.51 0.00 81 1012.7
20190626095003 69 12 0.0 1.0 0.00 0.52 0.00 80 1012.6
20190626094503 69 11 0.0 2.0 0.00 0.52 0.00 79 1012.5
20190626094004 69 11 0.0 2.0 0.00 0.52 0.00 79 1012.4
20190626093504 70 12 0.0 1.0 0.00 0.52 0.00 79 1012.4
20190626093003 70 11 0.0 2.0 0.00 0.52 0.00 79 1012.4
20190626092503 70 11 0.0 2.0 0.00 0.52 0.00 79 1012.4
20190626092004 70 11 0.0 2.0 0.00 0.52 0.00 79 1012.4
20190626091503 70 5 1.0 5.0 0.00 0.52 0.00 79 1012.3
20190626091003 70 14 1.0 5.0 0.00 0.52 0.00 79 1012.3
20190626090503 70 45 0.0 5.0 0.00 0.52 0.00 79 1012.2
20190626090004 70 37 1.0 5.0 0.00 0.52 0.00 79 1012.2
20190626085503 70 24 0.0 3.0 0.00 0.52 0.00 78 1012.1
20190626085003 70 332 0.0 1.0 0.00 0.52 0.00 77 1012.1
20190626084004 70 0 0.0 0.0 0.00 0.52 0.00 76 1012.0
20190626083504 70 332 0.0 2.0 0.00 0.52 0.00 75 1011.9
20190626083003 70 332 0.0 2.0 0.00 0.52 0.00 75 1011.8
20190626082503 70 331 0.0 2.0 0.00 0.52 0.00 74 1011.8
20190626082003 71 331 0.0 2.0 0.00 0.52 0.00 73 1011.7
20190626081504 71 329 0.0 1.0 0.00 0.52 0.00 72 1011.6
20190626081004 71 329 0.0 1.0 0.00 0.52 0.00 72 1011.5
20190626080503 71 329 0.0 1.0 0.00 0.52 0.00 71 1011.4
20190626080004 72 329 0.0 2.0 0.00 0.52 0.00 70 1011.4
20190626075504 72 339 1.0 3.0 0.00 0.52 0.00 69 1011.3
20190626075003 72 341 1.0 3.0 0.00 0.52 0.00 68 1011.3
20190626074504 72 352 0.0 3.0 0.00 0.52 0.00 67 1011.2
20190626074004 73 328 1.0 5.0 0.00 0.52 0.00 66 1011.1
20190626073503 73 328 1.0 6.0 0.00 0.52 0.00 66 1011.0
20190626073003 73 334 2.0 6.0 0.00 0.52 0.00 65 1010.9
20190626072503 73 335 2.0 8.0 0.00 0.52 0.00 65 1010.8
20190626072004 73 339 2.0 8.0 0.00 0.52 0.00 64 1010.7
20190626071504 74 349 2.0 7.0 0.00 0.52 0.00 64 1010.7
20190626071003 74 350 3.0 7.0 0.00 0.52 0.00 64 1010.7
20190626070503 74 338 3.0 10.0 0.00 0.52 0.00 64 1010.5
20190626070004 74 334 4.0 12.0 0.00 0.52 0.00 63 1010.5
20190626065503 74 339 4.0 12.0 0.00 0.52 0.00 63 1010.3
20190626065003 74 339 3.0 11.0 0.00 0.52 0.00 64 1010.3
20190626064503 73 341 3.0 11.0 0.00 0.52 0.00 65 1010.2
20190626063504 73 339 4.0 8.0 0.00 0.52 0.00 67 1010.2